Terminal Aerodrome Forecast
Issued by NWS Charleston, WV

Current Version | Previous Version | Graphics & Text | Print | Product List | Glossary On
Versions: 1 2 3 4 5 6 7 8 9 10 11 12 13 14 15 16 17 18 19 20 21 22 23 24
000
FTUS41 KRLX 251100
TAFEKN
TAF
KEKN 251138Z 2512/2612 00000KT 4SM BR OVC003
      TEMPO 2513/2515 6SM BR BKN005
     FM251500 VRB03KT P6SM FEW007
     FM251700 VRB03KT P6SM SCT035
     FM252300 VRB03KT P6SM SCT250
     FM260500 VRB03KT 5SM BR SCT250
     FM260700 00000KT 2SM BR SCT002=

USA.gov is the U.S. government's official web portal to all federal, state and local government web resources and services.